Skip Navigation LinksHome page > Weather > Current weather Skip Navigation Links

Current Weather

Chicago O'Hare Intl, Chicago

For information only: do not use for flight planning or navigation.
Latest weather
Observation time Monday, June 21, 2021 7:51 PM CDT
Local time Monday, June 21, 2021 8:27 PM CDT
Flight conditions Visual Meteorological Conditions
Winds
Wind direction Northwest (320°)
Wind speed 14 mph
Wind gusting to 23 mph
Visibility 10 mi.
Sky condition
Ceiling 25,000 ft. broken clouds
Cloud layer scattered clouds 6,500 ft.
Cloud layer broken clouds 25,000 ft.
Temperature 64°F
Dewpoint 41°F
Altimeter 29.87 in.Hg
Derived measurements
Relative humidity 43%
Density altitude 1185 ft.
Sea-level pressure 29.86 in.Hg
Remarks
Automated weather observing station with precipitation discriminator.
METAR KORD 220051Z 32012G20KT 10SM SCT065 BKN250 18/05 A2987 RMK AO2 SLP112 T01780050

Settings

Location code

InnerDrive.Weather 4.0.6770.0 Release CLR 4.0.30319.42000
Copyright ©2018 Inner Drive Technology. All rights reserved. Portions Copyright ©1986-2018 David Braverman.

Find weather

Site navigation


Skip Navigation Links

Place info

Page info

PayPal - The safer, easier way to pay online!

Return home.

Copyright ©2021 Inner Drive Technology. Purveyors of fine, hand-crafted computer software. Page printed 2021-06-22T01:27:07 UTC.